Terminal Aerodrome Forecast
Issued by NWS Des Moines, IA

Home | Current Version | Previous Version | Text Only | Print | Product List | Glossary On
Versions: 1 2 3 4 5 6 7 8 9 10 11 12 13 14 15 16 17 18 19 20 21 22 23 24 25 26 27 28 29 30 31 32 33 34
000
FTUS43 KDMX 140714 AAA
TAFALO
TAF AMD
KALO 140714Z 1407/1506 13011KT 2SM -SN SCT012 OVC025
     FM141100 13014G21KT 1SM -SN SCT004 OVC010
     FM141700 13013KT 4SM -SN BR BKN015
     FM142000 13012KT 5SM BR BKN025
     FM150000 13007KT 3SM BR BKN015=

USA.gov is the U.S. government's official web portal to all federal, state and local government web resources and services.